sensor_id;sensor_type;location;lat;lon;timestamp;temperature;humidity
25628;DHT22;40915;50.826;4.356;2023-12-04T00:01:49;2.90;99.90
25628;DHT22;40915;50.826;4.356;2023-12-04T00:04:15;2.90;99.90
25628;DHT22;40915;50.826;4.356;2023-12-04T00:06:41;2.80;99.90
25628;DHT22;40915;50.826;4.356;2023-12-04T00:09:07;2.80;99.90
25628;DHT22;40915;50.826;4.356;2023-12-04T00:11:33;2.80;99.90
25628;DHT22;40915;50.826;4.356;2023-12-04T00:13:59;2.80;99.90
25628;DHT22;40915;50.826;4.356;2023-12-04T00:16:25;2.70;99.90
25628;DHT22;40915;50.826;4.356;2023-12-04T00:18:51;2.70;99.90
25628;DHT22;40915;50.826;4.356;2023-12-04T00:21:17;2.80;99.90
25628;DHT22;40915;50.826;4.356;2023-12-04T00:23:42;2.80;99.90
25628;DHT22;40915;50.826;4.356;2023-12-04T00:26:08;2.70;99.90
25628;DHT22;40915;50.826;4.356;2023-12-04T00:28:36;2.70;99.90
25628;DHT22;40915;50.826;4.356;2023-12-04T00:31:02;2.80;99.90
25628;DHT22;40915;50.826;4.356;2023-12-04T00:33:28;2.80;99.90
25628;DHT22;40915;50.826;4.356;2023-12-04T00:35:53;2.80;99.90
25628;DHT22;40915;50.826;4.356;2023-12-04T00:38:19;2.90;99.90
25628;DHT22;40915;50.826;4.356;2023-12-04T00:40:45;2.90;99.90
25628;DHT22;40915;50.826;4.356;2023-12-04T00:43:10;2.90;99.90
25628;DHT22;40915;50.826;4.356;2023-12-04T00:45:36;2.90;99.90
25628;DHT22;40915;50.826;4.356;2023-12-04T00:48:02;2.90;99.90
25628;DHT22;40915;50.826;4.356;2023-12-04T00:50:28;2.90;99.90
25628;DHT22;40915;50.826;4.356;2023-12-04T00:52:54;2.90;99.90
25628;DHT22;40915;50.826;4.356;2023-12-04T00:55:19;2.80;99.90
25628;DHT22;40915;50.826;4.356;2023-12-04T00:57:45;2.80;99.90
25628;DHT22;40915;50.826;4.356;2023-12-04T01:00:11;2.90;99.90
25628;DHT22;40915;50.826;4.356;2023-12-04T01:02:37;2.90;99.90
25628;DHT22;40915;50.826;4.356;2023-12-04T01:05:03;2.90;99.90
25628;DHT22;40915;50.826;4.356;2023-12-04T01:07:29;2.90;99.90
25628;DHT22;40915;50.826;4.356;2023-12-04T01:09:55;2.90;99.90
25628;DHT22;40915;50.826;4.356;2023-12-04T01:12:20;2.90;99.90
25628;DHT22;40915;50.826;4.356;2023-12-04T01:14:47;2.90;99.90
25628;DHT22;40915;50.826;4.356;2023-12-04T01:17:12;2.90;99.90
25628;DHT22;40915;50.826;4.356;2023-12-04T01:19:38;2.90;99.90
25628;DHT22;40915;50.826;4.356;2023-12-04T01:22:04;2.90;99.90
25628;DHT22;40915;50.826;4.356;2023-12-04T01:24:30;2.90;99.90
25628;DHT22;40915;50.826;4.356;2023-12-04T01:26:56;2.90;99.90
25628;DHT22;40915;50.826;4.356;2023-12-04T01:29:22;2.90;99.90
25628;DHT22;40915;50.826;4.356;2023-12-04T01:31:47;2.90;99.90
25628;DHT22;40915;50.826;4.356;2023-12-04T01:34:13;3.00;99.90
25628;DHT22;40915;50.826;4.356;2023-12-04T01:36:42;3.00;99.90
25628;DHT22;40915;50.826;4.356;2023-12-04T01:39:07;3.10;99.90
25628;DHT22;40915;50.826;4.356;2023-12-04T01:41:33;3.10;99.90
25628;DHT22;40915;50.826;4.356;2023-12-04T01:43:59;3.10;99.90
25628;DHT22;40915;50.826;4.356;2023-12-04T01:46:24;3.10;99.90
25628;DHT22;40915;50.826;4.356;2023-12-04T01:48:51;3.10;99.90
25628;DHT22;40915;50.826;4.356;2023-12-04T01:51:17;3.10;99.90
25628;DHT22;40915;50.826;4.356;2023-12-04T01:53:44;3.10;99.90
25628;DHT22;40915;50.826;4.356;2023-12-04T01:56:10;3.10;99.90
25628;DHT22;40915;50.826;4.356;2023-12-04T01:58:37;3.10;99.90
25628;DHT22;40915;50.826;4.356;2023-12-04T02:01:04;3.10;99.90
25628;DHT22;40915;50.826;4.356;2023-12-04T02:03:30;3.10;99.90
25628;DHT22;40915;50.826;4.356;2023-12-04T02:05:59;3.20;99.90
25628;DHT22;40915;50.826;4.356;2023-12-04T02:08:25;3.20;99.90
25628;DHT22;40915;50.826;4.356;2023-12-04T02:10:51;3.20;99.90
25628;DHT22;40915;50.826;4.356;2023-12-04T02:13:16;3.30;99.90
25628;DHT22;40915;50.826;4.356;2023-12-04T02:15:42;3.30;99.90
25628;DHT22;40915;50.826;4.356;2023-12-04T02:18:08;3.30;99.90
25628;DHT22;40915;50.826;4.356;2023-12-04T02:20:34;3.40;99.90
25628;DHT22;40915;50.826;4.356;2023-12-04T02:23:03;3.40;99.90
25628;DHT22;40915;50.826;4.356;2023-12-04T02:25:29;3.40;99.90
25628;DHT22;40915;50.826;4.356;2023-12-04T02:27:58;3.40;99.90
25628;DHT22;40915;50.826;4.356;2023-12-04T02:30:26;3.40;99.90
25628;DHT22;40915;50.826;4.356;2023-12-04T02:32:54;3.40;99.90
25628;DHT22;40915;50.826;4.356;2023-12-04T02:35:22;3.50;99.90
25628;DHT22;40915;50.826;4.356;2023-12-04T02:37:49;3.40;99.90
25628;DHT22;40915;50.826;4.356;2023-12-04T02:40:15;3.40;99.90
25628;DHT22;40915;50.826;4.356;2023-12-04T02:42:41;3.50;99.90
25628;DHT22;40915;50.826;4.356;2023-12-04T02:45:07;3.40;99.90
25628;DHT22;40915;50.826;4.356;2023-12-04T02:47:33;3.40;99.90
25628;DHT22;40915;50.826;4.356;2023-12-04T02:49:58;3.30;99.90
25628;DHT22;40915;50.826;4.356;2023-12-04T02:52:24;3.30;99.90
25628;DHT22;40915;50.826;4.356;2023-12-04T02:54:50;3.40;99.90
25628;DHT22;40915;50.826;4.356;2023-12-04T02:57:15;3.40;99.90
25628;DHT22;40915;50.826;4.356;2023-12-04T02:59:41;3.40;99.90
25628;DHT22;40915;50.826;4.356;2023-12-04T03:02:06;3.40;99.90
25628;DHT22;40915;50.826;4.356;2023-12-04T03:04:32;3.40;99.90
25628;DHT22;40915;50.826;4.356;2023-12-04T03:06:58;3.40;99.90
25628;DHT22;40915;50.826;4.356;2023-12-04T03:09:24;3.50;99.90
25628;DHT22;40915;50.826;4.356;2023-12-04T03:11:49;3.50;99.90
25628;DHT22;40915;50.826;4.356;2023-12-04T03:14:15;3.60;99.90
25628;DHT22;40915;50.826;4.356;2023-12-04T03:16:40;3.60;99.90
25628;DHT22;40915;50.826;4.356;2023-12-04T03:19:06;3.60;99.90
25628;DHT22;40915;50.826;4.356;2023-12-04T03:21:32;3.50;99.90
25628;DHT22;40915;50.826;4.356;2023-12-04T03:23:57;3.60;99.90
25628;DHT22;40915;50.826;4.356;2023-12-04T03:26:23;3.60;99.90
25628;DHT22;40915;50.826;4.356;2023-12-04T03:28:49;3.60;99.90
25628;DHT22;40915;50.826;4.356;2023-12-04T03:31:14;3.60;99.90
25628;DHT22;40915;50.826;4.356;2023-12-04T03:33:40;3.70;99.90
25628;DHT22;40915;50.826;4.356;2023-12-04T03:36:06;3.70;99.90
25628;DHT22;40915;50.826;4.356;2023-12-04T03:38:32;3.70;99.90
25628;DHT22;40915;50.826;4.356;2023-12-04T03:40:57;3.70;99.90
25628;DHT22;40915;50.826;4.356;2023-12-04T03:43:23;3.60;99.90
25628;DHT22;40915;50.826;4.356;2023-12-04T03:45:49;3.60;99.90
25628;DHT22;40915;50.826;4.356;2023-12-04T03:48:14;3.60;99.90
25628;DHT22;40915;50.826;4.356;2023-12-04T03:50:40;3.60;99.90
25628;DHT22;40915;50.826;4.356;2023-12-04T03:53:06;3.60;99.90
25628;DHT22;40915;50.826;4.356;2023-12-04T03:55:31;3.50;99.90
25628;DHT22;40915;50.826;4.356;2023-12-04T03:57:57;3.50;99.90
25628;DHT22;40915;50.826;4.356;2023-12-04T04:00:23;3.50;99.90
25628;DHT22;40915;50.826;4.356;2023-12-04T04:02:49;3.50;99.90
25628;DHT22;40915;50.826;4.356;2023-12-04T04:05:15;3.60;99.90
25628;DHT22;40915;50.826;4.356;2023-12-04T04:07:41;3.50;99.90
25628;DHT22;40915;50.826;4.356;2023-12-04T04:10:07;3.60;99.90
25628;DHT22;40915;50.826;4.356;2023-12-04T04:12:33;3.50;99.90
25628;DHT22;40915;50.826;4.356;2023-12-04T04:14:59;3.50;99.90
25628;DHT22;40915;50.826;4.356;2023-12-04T04:17:24;3.50;99.90
25628;DHT22;40915;50.826;4.356;2023-12-04T04:19:54;3.50;99.90
25628;DHT22;40915;50.826;4.356;2023-12-04T04:22:21;3.50;99.90
25628;DHT22;40915;50.826;4.356;2023-12-04T04:24:47;3.60;99.90
25628;DHT22;40915;50.826;4.356;2023-12-04T04:27:13;3.50;99.90
25628;DHT22;40915;50.826;4.356;2023-12-04T04:29:38;3.60;99.90
25628;DHT22;40915;50.826;4.356;2023-12-04T04:32:04;3.50;99.90
25628;DHT22;40915;50.826;4.356;2023-12-04T04:34:30;3.50;99.90
25628;DHT22;40915;50.826;4.356;2023-12-04T04:36:56;3.50;99.90
25628;DHT22;40915;50.826;4.356;2023-12-04T04:39:21;3.50;99.90
25628;DHT22;40915;50.826;4.356;2023-12-04T04:41:47;3.50;99.90
25628;DHT22;40915;50.826;4.356;2023-12-04T04:44:13;3.60;99.90
25628;DHT22;40915;50.826;4.356;2023-12-04T04:46:39;3.60;99.90
25628;DHT22;40915;50.826;4.356;2023-12-04T04:49:04;3.60;99.90
25628;DHT22;40915;50.826;4.356;2023-12-04T04:51:32;3.60;99.90
25628;DHT22;40915;50.826;4.356;2023-12-04T04:53:59;3.60;99.90
25628;DHT22;40915;50.826;4.356;2023-12-04T04:56:25;3.60;99.90
25628;DHT22;40915;50.826;4.356;2023-12-04T04:58:50;3.60;99.90
25628;DHT22;40915;50.826;4.356;2023-12-04T05:01:16;3.60;99.90
25628;DHT22;40915;50.826;4.356;2023-12-04T05:03:42;3.60;99.90
25628;DHT22;40915;50.826;4.356;2023-12-04T05:06:08;3.60;99.90
25628;DHT22;40915;50.826;4.356;2023-12-04T05:08:34;3.60;99.90
25628;DHT22;40915;50.826;4.356;2023-12-04T05:11:00;3.60;99.90
25628;DHT22;40915;50.826;4.356;2023-12-04T05:13:26;3.50;99.90
25628;DHT22;40915;50.826;4.356;2023-12-04T05:15:52;3.50;99.90
25628;DHT22;40915;50.826;4.356;2023-12-04T05:18:18;3.50;99.90
25628;DHT22;40915;50.826;4.356;2023-12-04T05:20:43;3.60;99.90
25628;DHT22;40915;50.826;4.356;2023-12-04T05:23:09;3.60;99.90
25628;DHT22;40915;50.826;4.356;2023-12-04T05:25:35;3.60;99.90
25628;DHT22;40915;50.826;4.356;2023-12-04T05:28:00;3.70;99.90
25628;DHT22;40915;50.826;4.356;2023-12-04T05:30:26;3.70;99.90
25628;DHT22;40915;50.826;4.356;2023-12-04T05:32:51;3.80;99.90
25628;DHT22;40915;50.826;4.356;2023-12-04T05:35:17;3.70;99.90
25628;DHT22;40915;50.826;4.356;2023-12-04T05:37:43;3.80;99.90
25628;DHT22;40915;50.826;4.356;2023-12-04T05:40:09;3.80;99.90
25628;DHT22;40915;50.826;4.356;2023-12-04T05:42:36;3.90;99.90
25628;DHT22;40915;50.826;4.356;2023-12-04T05:45:02;3.90;99.90
25628;DHT22;40915;50.826;4.356;2023-12-04T05:47:28;3.90;99.90
25628;DHT22;40915;50.826;4.356;2023-12-04T05:49:54;3.90;99.90
25628;DHT22;40915;50.826;4.356;2023-12-04T05:52:20;3.90;99.90
25628;DHT22;40915;50.826;4.356;2023-12-04T05:54:45;3.90;99.90
25628;DHT22;40915;50.826;4.356;2023-12-04T05:57:11;3.90;99.90
25628;DHT22;40915;50.826;4.356;2023-12-04T05:59:37;4.00;99.90
25628;DHT22;40915;50.826;4.356;2023-12-04T06:02:03;3.90;99.90
25628;DHT22;40915;50.826;4.356;2023-12-04T06:04:28;3.90;99.90
25628;DHT22;40915;50.826;4.356;2023-12-04T06:06:54;3.90;99.90
25628;DHT22;40915;50.826;4.356;2023-12-04T06:09:20;3.90;99.90
25628;DHT22;40915;50.826;4.356;2023-12-04T06:11:45;3.90;99.90
25628;DHT22;40915;50.826;4.356;2023-12-04T06:14:11;3.90;99.90
25628;DHT22;40915;50.826;4.356;2023-12-04T06:16:37;3.80;99.90
25628;DHT22;40915;50.826;4.356;2023-12-04T06:19:03;3.90;99.90
25628;DHT22;40915;50.826;4.356;2023-12-04T06:21:30;3.80;99.90
25628;DHT22;40915;50.826;4.356;2023-12-04T06:23:56;3.80;99.90
25628;DHT22;40915;50.826;4.356;2023-12-04T06:26:23;3.80;99.90
25628;DHT22;40915;50.826;4.356;2023-12-04T06:28:49;3.80;99.90
25628;DHT22;40915;50.826;4.356;2023-12-04T06:31:15;3.80;99.90
25628;DHT22;40915;50.826;4.356;2023-12-04T06:33:41;3.80;99.90
25628;DHT22;40915;50.826;4.356;2023-12-04T06:36:07;3.80;99.90
25628;DHT22;40915;50.826;4.356;2023-12-04T06:38:37;3.80;99.90
25628;DHT22;40915;50.826;4.356;2023-12-04T06:41:05;3.80;99.90
25628;DHT22;40915;50.826;4.356;2023-12-04T06:43:31;3.70;99.90
25628;DHT22;40915;50.826;4.356;2023-12-04T06:45:57;3.80;99.90
25628;DHT22;40915;50.826;4.356;2023-12-04T06:48:24;3.80;99.90
25628;DHT22;40915;50.826;4.356;2023-12-04T06:50:50;3.80;99.90
25628;DHT22;40915;50.826;4.356;2023-12-04T06:53:16;3.80;99.90
25628;DHT22;40915;50.826;4.356;2023-12-04T06:55:42;3.80;99.90
25628;DHT22;40915;50.826;4.356;2023-12-04T06:58:07;3.80;99.90
25628;DHT22;40915;50.826;4.356;2023-12-04T07:00:33;3.80;99.90
25628;DHT22;40915;50.826;4.356;2023-12-04T07:02:59;3.80;99.90
25628;DHT22;40915;50.826;4.356;2023-12-04T07:05:25;3.80;99.90
25628;DHT22;40915;50.826;4.356;2023-12-04T07:07:50;3.80;99.90
25628;DHT22;40915;50.826;4.356;2023-12-04T07:10:16;3.80;99.90
25628;DHT22;40915;50.826;4.356;2023-12-04T07:12:42;3.80;99.90
25628;DHT22;40915;50.826;4.356;2023-12-04T07:15:09;3.80;99.90
25628;DHT22;40915;50.826;4.356;2023-12-04T07:17:36;3.80;99.90
25628;DHT22;40915;50.826;4.356;2023-12-04T07:20:03;3.90;99.90
25628;DHT22;40915;50.826;4.356;2023-12-04T07:22:32;3.90;99.90
25628;DHT22;40915;50.826;4.356;2023-12-04T07:24:58;3.90;99.90
25628;DHT22;40915;50.826;4.356;2023-12-04T07:27:24;3.90;99.90
25628;DHT22;40915;50.826;4.356;2023-12-04T07:29:49;3.90;99.90
25628;DHT22;40915;50.826;4.356;2023-12-04T07:32:15;3.80;99.90
25628;DHT22;40915;50.826;4.356;2023-12-04T07:34:40;3.90;99.90
25628;DHT22;40915;50.826;4.356;2023-12-04T07:37:06;3.90;99.90
25628;DHT22;40915;50.826;4.356;2023-12-04T07:39:32;3.90;99.90
25628;DHT22;40915;50.826;4.356;2023-12-04T07:41:58;3.90;99.90
25628;DHT22;40915;50.826;4.356;2023-12-04T07:44:24;3.90;99.90
25628;DHT22;40915;50.826;4.356;2023-12-04T07:46:49;3.80;99.90
25628;DHT22;40915;50.826;4.356;2023-12-04T07:49:15;3.80;99.90
25628;DHT22;40915;50.826;4.356;2023-12-04T07:51:40;3.90;99.90
25628;DHT22;40915;50.826;4.356;2023-12-04T07:54:06;3.80;99.90
25628;DHT22;40915;50.826;4.356;2023-12-04T07:56:32;3.80;99.90
25628;DHT22;40915;50.826;4.356;2023-12-04T07:58:57;3.80;99.90
25628;DHT22;40915;50.826;4.356;2023-12-04T08:01:23;3.70;99.90
25628;DHT22;40915;50.826;4.356;2023-12-04T08:03:49;3.80;99.90
25628;DHT22;40915;50.826;4.356;2023-12-04T08:06:15;3.80;99.90
25628;DHT22;40915;50.826;4.356;2023-12-04T08:08:43;3.80;99.90
25628;DHT22;40915;50.826;4.356;2023-12-04T08:11:12;3.80;99.90
25628;DHT22;40915;50.826;4.356;2023-12-04T08:13:39;3.80;99.90
25628;DHT22;40915;50.826;4.356;2023-12-04T08:16:05;3.80;99.90
25628;DHT22;40915;50.826;4.356;2023-12-04T08:18:37;3.70;99.90
25628;DHT22;40915;50.826;4.356;2023-12-04T08:21:03;3.80;99.90
25628;DHT22;40915;50.826;4.356;2023-12-04T08:23:29;3.80;99.90
25628;DHT22;40915;50.826;4.356;2023-12-04T08:25:54;3.80;99.90
25628;DHT22;40915;50.826;4.356;2023-12-04T08:28:20;3.80;99.90
25628;DHT22;40915;50.826;4.356;2023-12-04T08:30:46;3.80;99.90
25628;DHT22;40915;50.826;4.356;2023-12-04T08:33:12;3.80;99.90
25628;DHT22;40915;50.826;4.356;2023-12-04T08:35:38;3.90;99.90
25628;DHT22;40915;50.826;4.356;2023-12-04T08:38:04;3.80;99.90
25628;DHT22;40915;50.826;4.356;2023-12-04T08:40:29;3.80;99.90
25628;DHT22;40915;50.826;4.356;2023-12-04T08:42:55;3.80;99.90
25628;DHT22;40915;50.826;4.356;2023-12-04T08:45:21;3.80;99.90
25628;DHT22;40915;50.826;4.356;2023-12-04T08:47:46;3.80;99.90
25628;DHT22;40915;50.826;4.356;2023-12-04T08:50:12;3.80;99.90
25628;DHT22;40915;50.826;4.356;2023-12-04T08:52:37;3.90;99.90
25628;DHT22;40915;50.826;4.356;2023-12-04T08:55:05;3.70;99.90
25628;DHT22;40915;50.826;4.356;2023-12-04T08:57:31;3.70;99.90
25628;DHT22;40915;50.826;4.356;2023-12-04T08:59:57;3.80;99.90
25628;DHT22;40915;50.826;4.356;2023-12-04T09:02:22;3.70;99.90
25628;DHT22;40915;50.826;4.356;2023-12-04T09:04:48;3.70;99.90
25628;DHT22;40915;50.826;4.356;2023-12-04T09:07:13;3.70;99.90
25628;DHT22;40915;50.826;4.356;2023-12-04T09:09:40;3.70;99.90
25628;DHT22;40915;50.826;4.356;2023-12-04T09:12:06;3.70;99.90
25628;DHT22;40915;50.826;4.356;2023-12-04T09:14:32;3.70;99.90
25628;DHT22;40915;50.826;4.356;2023-12-04T09:16:58;3.60;99.90
25628;DHT22;40915;50.826;4.356;2023-12-04T09:19:24;3.70;99.90
25628;DHT22;40915;50.826;4.356;2023-12-04T09:21:49;3.70;99.90
25628;DHT22;40915;50.826;4.356;2023-12-04T09:24:15;3.60;99.90
25628;DHT22;40915;50.826;4.356;2023-12-04T09:26:40;3.70;99.90
25628;DHT22;40915;50.826;4.356;2023-12-04T09:29:06;3.60;99.90
25628;DHT22;40915;50.826;4.356;2023-12-04T09:31:32;3.60;99.90
25628;DHT22;40915;50.826;4.356;2023-12-04T09:33:57;3.60;99.90
25628;DHT22;40915;50.826;4.356;2023-12-04T09:36:23;3.60;99.90
25628;DHT22;40915;50.826;4.356;2023-12-04T09:38:49;3.60;99.90
25628;DHT22;40915;50.826;4.356;2023-12-04T09:41:15;3.70;99.90
25628;DHT22;40915;50.826;4.356;2023-12-04T09:43:41;3.70;99.90
25628;DHT22;40915;50.826;4.356;2023-12-04T09:46:08;3.50;99.90
25628;DHT22;40915;50.826;4.356;2023-12-04T09:48:35;3.40;99.90
25628;DHT22;40915;50.826;4.356;2023-12-04T09:51:02;3.40;99.90
25628;DHT22;40915;50.826;4.356;2023-12-04T09:53:30;3.30;99.90
25628;DHT22;40915;50.826;4.356;2023-12-04T09:55:59;3.30;99.90
25628;DHT22;40915;50.826;4.356;2023-12-04T09:58:27;3.30;99.90
25628;DHT22;40915;50.826;4.356;2023-12-04T10:00:54;3.20;99.90
25628;DHT22;40915;50.826;4.356;2023-12-04T10:03:20;3.10;99.90
25628;DHT22;40915;50.826;4.356;2023-12-04T10:05:46;3.10;99.90
25628;DHT22;40915;50.826;4.356;2023-12-04T10:08:12;3.10;99.90
25628;DHT22;40915;50.826;4.356;2023-12-04T10:10:37;3.00;99.90
25628;DHT22;40915;50.826;4.356;2023-12-04T10:13:03;3.00;99.90
25628;DHT22;40915;50.826;4.356;2023-12-04T10:15:29;3.00;99.90
25628;DHT22;40915;50.826;4.356;2023-12-04T10:17:54;2.90;99.90
25628;DHT22;40915;50.826;4.356;2023-12-04T10:20:21;2.90;99.90
25628;DHT22;40915;50.826;4.356;2023-12-04T10:22:58;3.00;99.90
25628;DHT22;40915;50.826;4.356;2023-12-04T10:25:28;3.00;99.90
25628;DHT22;40915;50.826;4.356;2023-12-04T10:28:08;3.10;99.90
25628;DHT22;40915;50.826;4.356;2023-12-04T10:30:34;3.10;99.90
25628;DHT22;40915;50.826;4.356;2023-12-04T10:33:02;3.10;99.90
25628;DHT22;40915;50.826;4.356;2023-12-04T10:35:35;3.10;99.90
25628;DHT22;40915;50.826;4.356;2023-12-04T10:38:05;3.10;99.90
25628;DHT22;40915;50.826;4.356;2023-12-04T10:40:34;3.10;99.90
25628;DHT22;40915;50.826;4.356;2023-12-04T10:43:17;3.10;99.90
25628;DHT22;40915;50.826;4.356;2023-12-04T10:45:45;3.10;99.90
25628;DHT22;40915;50.826;4.356;2023-12-04T10:48:13;3.10;99.90
25628;DHT22;40915;50.826;4.356;2023-12-04T10:50:46;3.20;99.90
25628;DHT22;40915;50.826;4.356;2023-12-04T10:53:14;3.30;99.90
25628;DHT22;40915;50.826;4.356;2023-12-04T10:55:41;3.20;99.90
25628;DHT22;40915;50.826;4.356;2023-12-04T10:58:10;3.20;99.90
25628;DHT22;40915;50.826;4.356;2023-12-04T11:00:47;3.40;99.90
25628;DHT22;40915;50.826;4.356;2023-12-04T11:03:18;3.50;99.90
25628;DHT22;40915;50.826;4.356;2023-12-04T11:05:46;3.50;99.90
25628;DHT22;40915;50.826;4.356;2023-12-04T11:08:17;3.50;99.90
25628;DHT22;40915;50.826;4.356;2023-12-04T11:11:12;3.60;99.90
25628;DHT22;40915;50.826;4.356;2023-12-04T11:13:40;3.80;99.90
25628;DHT22;40915;50.826;4.356;2023-12-04T11:16:11;4.10;99.90
25628;DHT22;40915;50.826;4.356;2023-12-04T11:18:40;3.90;99.90
25628;DHT22;40915;50.826;4.356;2023-12-04T11:21:08;3.80;99.90
25628;DHT22;40915;50.826;4.356;2023-12-04T11:23:35;3.80;99.90
25628;DHT22;40915;50.826;4.356;2023-12-04T11:26:03;3.90;99.90
25628;DHT22;40915;50.826;4.356;2023-12-04T11:28:30;3.80;99.90
25628;DHT22;40915;50.826;4.356;2023-12-04T11:30:57;3.80;99.90
25628;DHT22;40915;50.826;4.356;2023-12-04T11:33:24;3.80;99.90
25628;DHT22;40915;50.826;4.356;2023-12-04T11:35:50;3.80;99.90
25628;DHT22;40915;50.826;4.356;2023-12-04T11:38:19;3.80;99.90
25628;DHT22;40915;50.826;4.356;2023-12-04T11:40:46;3.80;99.90
25628;DHT22;40915;50.826;4.356;2023-12-04T11:43:25;3.70;99.90
25628;DHT22;40915;50.826;4.356;2023-12-04T11:45:51;3.70;99.90
25628;DHT22;40915;50.826;4.356;2023-12-04T11:48:25;3.80;99.90
25628;DHT22;40915;50.826;4.356;2023-12-04T11:50:50;3.80;99.90
25628;DHT22;40915;50.826;4.356;2023-12-04T11:53:16;3.80;99.90
25628;DHT22;40915;50.826;4.356;2023-12-04T11:55:42;3.90;99.90
25628;DHT22;40915;50.826;4.356;2023-12-04T11:58:11;3.80;99.90
25628;DHT22;40915;50.826;4.356;2023-12-04T12:00:37;3.80;99.90
25628;DHT22;40915;50.826;4.356;2023-12-04T12:03:07;3.80;99.90
25628;DHT22;40915;50.826;4.356;2023-12-04T12:05:35;3.80;99.90
25628;DHT22;40915;50.826;4.356;2023-12-04T12:08:02;3.80;99.90
25628;DHT22;40915;50.826;4.356;2023-12-04T12:10:28;3.80;99.90
25628;DHT22;40915;50.826;4.356;2023-12-04T12:12:55;3.80;99.90
25628;DHT22;40915;50.826;4.356;2023-12-04T12:15:20;3.90;99.90
25628;DHT22;40915;50.826;4.356;2023-12-04T12:17:46;3.90;99.90
25628;DHT22;40915;50.826;4.356;2023-12-04T12:20:14;4.00;99.90
25628;DHT22;40915;50.826;4.356;2023-12-04T12:22:40;4.00;99.90
25628;DHT22;40915;50.826;4.356;2023-12-04T12:25:10;4.00;99.90
25628;DHT22;40915;50.826;4.356;2023-12-04T12:27:39;4.00;99.90
25628;DHT22;40915;50.826;4.356;2023-12-04T12:30:06;4.00;99.90
25628;DHT22;40915;50.826;4.356;2023-12-04T12:32:35;4.00;99.90
25628;DHT22;40915;50.826;4.356;2023-12-04T12:35:03;4.00;99.90
25628;DHT22;40915;50.826;4.356;2023-12-04T12:37:30;4.10;99.90
25628;DHT22;40915;50.826;4.356;2023-12-04T12:39:57;4.10;99.90
25628;DHT22;40915;50.826;4.356;2023-12-04T12:42:27;4.10;99.90
25628;DHT22;40915;50.826;4.356;2023-12-04T12:44:54;4.20;99.90
25628;DHT22;40915;50.826;4.356;2023-12-04T12:47:21;4.20;99.90
25628;DHT22;40915;50.826;4.356;2023-12-04T12:49:47;4.20;99.90
25628;DHT22;40915;50.826;4.356;2023-12-04T12:52:12;4.20;99.90
25628;DHT22;40915;50.826;4.356;2023-12-04T12:54:42;4.30;99.90
25628;DHT22;40915;50.826;4.356;2023-12-04T12:57:08;4.30;99.90
25628;DHT22;40915;50.826;4.356;2023-12-04T12:59:35;4.30;99.90
25628;DHT22;40915;50.826;4.356;2023-12-04T13:02:01;4.30;99.90
25628;DHT22;40915;50.826;4.356;2023-12-04T13:04:37;4.20;99.90
25628;DHT22;40915;50.826;4.356;2023-12-04T13:07:03;4.20;99.90
25628;DHT22;40915;50.826;4.356;2023-12-04T13:09:31;4.10;99.90
25628;DHT22;40915;50.826;4.356;2023-12-04T13:11:56;4.10;99.90
25628;DHT22;40915;50.826;4.356;2023-12-04T13:14:22;4.10;99.90
25628;DHT22;40915;50.826;4.356;2023-12-04T13:16:48;4.10;99.90
25628;DHT22;40915;50.826;4.356;2023-12-04T13:19:13;4.10;99.90
25628;DHT22;40915;50.826;4.356;2023-12-04T13:21:39;4.10;99.90
25628;DHT22;40915;50.826;4.356;2023-12-04T13:24:05;4.10;99.90
25628;DHT22;40915;50.826;4.356;2023-12-04T13:26:33;4.20;99.90
25628;DHT22;40915;50.826;4.356;2023-12-04T13:28:59;4.20;99.90
25628;DHT22;40915;50.826;4.356;2023-12-04T13:31:25;4.20;99.90
25628;DHT22;40915;50.826;4.356;2023-12-04T13:33:50;4.20;99.90
25628;DHT22;40915;50.826;4.356;2023-12-04T13:36:16;4.30;99.90
25628;DHT22;40915;50.826;4.356;2023-12-04T13:38:42;4.30;99.90
25628;DHT22;40915;50.826;4.356;2023-12-04T13:41:07;4.20;99.90
25628;DHT22;40915;50.826;4.356;2023-12-04T13:43:59;4.20;99.90
25628;DHT22;40915;50.826;4.356;2023-12-04T13:46:28;4.30;99.90
25628;DHT22;40915;50.826;4.356;2023-12-04T13:48:55;4.20;99.90
25628;DHT22;40915;50.826;4.356;2023-12-04T13:51:21;4.20;99.90
25628;DHT22;40915;50.826;4.356;2023-12-04T13:53:46;4.20;99.90
25628;DHT22;40915;50.826;4.356;2023-12-04T13:56:15;4.20;99.90
25628;DHT22;40915;50.826;4.356;2023-12-04T13:58:47;4.20;99.90
25628;DHT22;40915;50.826;4.356;2023-12-04T14:01:19;4.20;99.90
25628;DHT22;40915;50.826;4.356;2023-12-04T14:03:48;4.20;99.90
25628;DHT22;40915;50.826;4.356;2023-12-04T14:06:14;4.30;99.90
25628;DHT22;40915;50.826;4.356;2023-12-04T14:08:41;4.30;99.90
25628;DHT22;40915;50.826;4.356;2023-12-04T14:11:07;4.30;99.90
25628;DHT22;40915;50.826;4.356;2023-12-04T14:13:33;4.30;99.90
25628;DHT22;40915;50.826;4.356;2023-12-04T14:15:59;4.30;99.90
25628;DHT22;40915;50.826;4.356;2023-12-04T14:18:26;4.20;99.90
25628;DHT22;40915;50.826;4.356;2023-12-04T14:20:52;4.30;99.90
25628;DHT22;40915;50.826;4.356;2023-12-04T14:23:18;4.30;99.90
25628;DHT22;40915;50.826;4.356;2023-12-04T14:25:44;4.30;99.90
25628;DHT22;40915;50.826;4.356;2023-12-04T14:28:10;4.30;99.90
25628;DHT22;40915;50.826;4.356;2023-12-04T14:30:36;4.30;99.90
25628;DHT22;40915;50.826;4.356;2023-12-04T14:33:02;4.30;99.90
25628;DHT22;40915;50.826;4.356;2023-12-04T14:35:27;4.30;99.90
25628;DHT22;40915;50.826;4.356;2023-12-04T14:37:53;4.40;99.90
25628;DHT22;40915;50.826;4.356;2023-12-04T14:40:18;4.40;99.90
25628;DHT22;40915;50.826;4.356;2023-12-04T14:42:45;4.40;99.90
25628;DHT22;40915;50.826;4.356;2023-12-04T14:45:12;4.40;99.90
25628;DHT22;40915;50.826;4.356;2023-12-04T14:47:39;4.40;99.90
25628;DHT22;40915;50.826;4.356;2023-12-04T14:50:05;4.40;99.90
25628;DHT22;40915;50.826;4.356;2023-12-04T14:52:32;4.40;99.90
25628;DHT22;40915;50.826;4.356;2023-12-04T14:54:59;4.50;99.90
25628;DHT22;40915;50.826;4.356;2023-12-04T14:57:48;4.50;99.90
25628;DHT22;40915;50.826;4.356;2023-12-04T15:00:32;4.50;99.90
25628;DHT22;40915;50.826;4.356;2023-12-04T15:03:21;4.50;99.90
25628;DHT22;40915;50.826;4.356;2023-12-04T15:05:49;4.50;99.90
25628;DHT22;40915;50.826;4.356;2023-12-04T15:08:24;4.50;99.90
25628;DHT22;40915;50.826;4.356;2023-12-04T15:11:08;4.60;99.90
25628;DHT22;40915;50.826;4.356;2023-12-04T15:13:53;4.50;99.90
25628;DHT22;40915;50.826;4.356;2023-12-04T15:16:33;4.60;99.90
25628;DHT22;40915;50.826;4.356;2023-12-04T15:19:03;4.50;99.90
25628;DHT22;40915;50.826;4.356;2023-12-04T15:21:47;4.50;99.90
25628;DHT22;40915;50.826;4.356;2023-12-04T15:24:13;4.60;99.90
25628;DHT22;40915;50.826;4.356;2023-12-04T15:26:38;4.60;99.90
25628;DHT22;40915;50.826;4.356;2023-12-04T15:29:04;4.60;99.90
25628;DHT22;40915;50.826;4.356;2023-12-04T15:31:31;4.50;99.90
25628;DHT22;40915;50.826;4.356;2023-12-04T15:33:57;4.50;99.90
25628;DHT22;40915;50.826;4.356;2023-12-04T15:36:22;4.50;99.90
25628;DHT22;40915;50.826;4.356;2023-12-04T15:38:48;4.50;99.90
25628;DHT22;40915;50.826;4.356;2023-12-04T15:41:14;4.60;99.90
25628;DHT22;40915;50.826;4.356;2023-12-04T15:43:42;4.50;99.90